sensor_id;sensor_type;location;lat;lon;timestamp;P1;durP1;ratioP1;P2;durP2;ratioP2
54193;SDS011;40102;50.906;6.972;2023-07-09T00:02:12;7.05;;;4.00;;
54193;SDS011;40102;50.906;6.972;2023-07-09T00:04:38;9.68;;;4.18;;
54193;SDS011;40102;50.906;6.972;2023-07-09T00:07:04;4.90;;;3.70;;
54193;SDS011;40102;50.906;6.972;2023-07-09T00:09:30;5.65;;;3.75;;
54193;SDS011;40102;50.906;6.972;2023-07-09T00:11:55;5.40;;;3.67;;
54193;SDS011;40102;50.906;6.972;2023-07-09T00:14:21;6.93;;;3.72;;
54193;SDS011;40102;50.906;6.972;2023-07-09T00:16:46;6.35;;;4.10;;
54193;SDS011;40102;50.906;6.972;2023-07-09T00:19:16;7.90;;;3.70;;
54193;SDS011;40102;50.906;6.972;2023-07-09T00:21:44;5.13;;;3.70;;
54193;SDS011;40102;50.906;6.972;2023-07-09T00:24:11;5.85;;;3.80;;
54193;SDS011;40102;50.906;6.972;2023-07-09T00:26:37;6.85;;;4.18;;
54193;SDS011;40102;50.906;6.972;2023-07-09T00:29:07;4.95;;;3.60;;
54193;SDS011;40102;50.906;6.972;2023-07-09T00:31:34;5.73;;;3.63;;
54193;SDS011;40102;50.906;6.972;2023-07-09T00:34:00;6.50;;;3.80;;
54193;SDS011;40102;50.906;6.972;2023-07-09T00:36:27;6.32;;;3.70;;
54193;SDS011;40102;50.906;6.972;2023-07-09T00:38:56;5.35;;;3.75;;
54193;SDS011;40102;50.906;6.972;2023-07-09T00:41:24;6.57;;;3.97;;
54193;SDS011;40102;50.906;6.972;2023-07-09T00:43:51;7.18;;;4.20;;
54193;SDS011;40102;50.906;6.972;2023-07-09T00:48:48;8.55;;;4.60;;
54193;SDS011;40102;50.906;6.972;2023-07-09T00:51:18;6.35;;;3.80;;
54193;SDS011;40102;50.906;6.972;2023-07-09T00:53:46;7.28;;;3.63;;
54193;SDS011;40102;50.906;6.972;2023-07-09T00:56:34;7.28;;;3.72;;
54193;SDS011;40102;50.906;6.972;2023-07-09T00:59:03;6.45;;;3.90;;
54193;SDS011;40102;50.906;6.972;2023-07-09T01:01:33;6.05;;;4.20;;
54193;SDS011;40102;50.906;6.972;2023-07-09T01:03:59;6.97;;;4.10;;
54193;SDS011;40102;50.906;6.972;2023-07-09T01:06:30;7.78;;;4.20;;
54193;SDS011;40102;50.906;6.972;2023-07-09T01:09:00;6.28;;;3.70;;
54193;SDS011;40102;50.906;6.972;2023-07-09T01:11:26;6.15;;;4.00;;
54193;SDS011;40102;50.906;6.972;2023-07-09T01:13:56;8.55;;;3.80;;
54193;SDS011;40102;50.906;6.972;2023-07-09T01:16:25;9.52;;;4.00;;
54193;SDS011;40102;50.906;6.972;2023-07-09T01:18:54;7.15;;;4.60;;
54193;SDS011;40102;50.906;6.972;2023-07-09T01:21:20;6.85;;;4.15;;
54193;SDS011;40102;50.906;6.972;2023-07-09T01:23:46;9.75;;;4.43;;
54193;SDS011;40102;50.906;6.972;2023-07-09T01:26:17;8.13;;;4.20;;
54193;SDS011;40102;50.906;6.972;2023-07-09T01:28:44;8.95;;;4.50;;
54193;SDS011;40102;50.906;6.972;2023-07-09T01:31:10;7.25;;;4.25;;
54193;SDS011;40102;50.906;6.972;2023-07-09T01:33:38;7.15;;;4.30;;
54193;SDS011;40102;50.906;6.972;2023-07-09T01:36:08;6.70;;;3.95;;
54193;SDS011;40102;50.906;6.972;2023-07-09T01:38:35;8.50;;;4.32;;
54193;SDS011;40102;50.906;6.972;2023-07-09T01:41:01;9.10;;;4.55;;
54193;SDS011;40102;50.906;6.972;2023-07-09T01:43:27;9.32;;;4.53;;
54193;SDS011;40102;50.906;6.972;2023-07-09T01:45:53;7.18;;;4.32;;
54193;SDS011;40102;50.906;6.972;2023-07-09T01:48:22;8.10;;;3.90;;
54193;SDS011;40102;50.906;6.972;2023-07-09T01:50:49;5.40;;;3.58;;
54193;SDS011;40102;50.906;6.972;2023-07-09T01:53:16;7.80;;;4.18;;
54193;SDS011;40102;50.906;6.972;2023-07-09T01:55:44;6.60;;;3.97;;
54193;SDS011;40102;50.906;6.972;2023-07-09T01:58:09;10.60;;;4.32;;
54193;SDS011;40102;50.906;6.972;2023-07-09T02:00:36;7.00;;;3.60;;
54193;SDS011;40102;50.906;6.972;2023-07-09T02:03:03;6.60;;;3.90;;
54193;SDS011;40102;50.906;6.972;2023-07-09T02:05:33;8.45;;;3.75;;
54193;SDS011;40102;50.906;6.972;2023-07-09T02:07:58;6.10;;;3.65;;
54193;SDS011;40102;50.906;6.972;2023-07-09T02:10:24;7.95;;;3.80;;
54193;SDS011;40102;50.906;6.972;2023-07-09T02:12:49;5.10;;;3.63;;
54193;SDS011;40102;50.906;6.972;2023-07-09T02:15:15;7.68;;;3.80;;
54193;SDS011;40102;50.906;6.972;2023-07-09T02:17:41;6.30;;;3.83;;
54193;SDS011;40102;50.906;6.972;2023-07-09T02:20:07;5.07;;;3.38;;
54193;SDS011;40102;50.906;6.972;2023-07-09T02:22:34;5.70;;;3.75;;
54193;SDS011;40102;50.906;6.972;2023-07-09T02:25:00;5.88;;;3.50;;
54193;SDS011;40102;50.906;6.972;2023-07-09T02:27:26;4.75;;;3.80;;
54193;SDS011;40102;50.906;6.972;2023-07-09T02:29:51;4.65;;;3.40;;
54193;SDS011;40102;50.906;6.972;2023-07-09T02:32:18;6.20;;;3.90;;
54193;SDS011;40102;50.906;6.972;2023-07-09T02:34:45;4.80;;;3.55;;
54193;SDS011;40102;50.906;6.972;2023-07-09T02:37:14;6.30;;;3.92;;
54193;SDS011;40102;50.906;6.972;2023-07-09T02:39:41;7.95;;;3.70;;
54193;SDS011;40102;50.906;6.972;2023-07-09T02:42:08;5.40;;;3.38;;
54193;SDS011;40102;50.906;6.972;2023-07-09T02:44:39;6.65;;;3.85;;
54193;SDS011;40102;50.906;6.972;2023-07-09T02:47:08;7.03;;;3.83;;
54193;SDS011;40102;50.906;6.972;2023-07-09T02:49:34;6.38;;;4.18;;
54193;SDS011;40102;50.906;6.972;2023-07-09T02:52:00;5.50;;;3.40;;
54193;SDS011;40102;50.906;6.972;2023-07-09T02:54:25;7.63;;;3.60;;
54193;SDS011;40102;50.906;6.972;2023-07-09T02:56:50;6.40;;;3.60;;
54193;SDS011;40102;50.906;6.972;2023-07-09T02:59:16;4.93;;;3.63;;
54193;SDS011;40102;50.906;6.972;2023-07-09T03:01:42;5.55;;;3.78;;
54193;SDS011;40102;50.906;6.972;2023-07-09T03:04:07;7.13;;;4.00;;
54193;SDS011;40102;50.906;6.972;2023-07-09T03:06:33;6.80;;;3.90;;
54193;SDS011;40102;50.906;6.972;2023-07-09T03:09:00;9.50;;;4.53;;
54193;SDS011;40102;50.906;6.972;2023-07-09T03:11:27;6.72;;;4.45;;
54193;SDS011;40102;50.906;6.972;2023-07-09T03:13:55;8.82;;;4.50;;
54193;SDS011;40102;50.906;6.972;2023-07-09T03:16:20;7.47;;;4.38;;
54193;SDS011;40102;50.906;6.972;2023-07-09T03:18:46;7.07;;;4.15;;
54193;SDS011;40102;50.906;6.972;2023-07-09T03:21:11;13.18;;;5.15;;
54193;SDS011;40102;50.906;6.972;2023-07-09T03:23:36;6.13;;;3.90;;
54193;SDS011;40102;50.906;6.972;2023-07-09T03:26:02;6.68;;;4.00;;
54193;SDS011;40102;50.906;6.972;2023-07-09T03:28:29;7.25;;;4.07;;
54193;SDS011;40102;50.906;6.972;2023-07-09T03:30:56;6.95;;;3.92;;
54193;SDS011;40102;50.906;6.972;2023-07-09T03:33:22;10.85;;;4.13;;
54193;SDS011;40102;50.906;6.972;2023-07-09T03:35:47;7.15;;;4.00;;
54193;SDS011;40102;50.906;6.972;2023-07-09T03:38:13;6.43;;;4.55;;
54193;SDS011;40102;50.906;6.972;2023-07-09T03:40:38;8.60;;;4.32;;
54193;SDS011;40102;50.906;6.972;2023-07-09T03:43:04;8.25;;;4.15;;
54193;SDS011;40102;50.906;6.972;2023-07-09T03:45:31;8.43;;;4.13;;
54193;SDS011;40102;50.906;6.972;2023-07-09T03:47:57;9.90;;;3.92;;
54193;SDS011;40102;50.906;6.972;2023-07-09T03:50:23;5.68;;;4.25;;
54193;SDS011;40102;50.906;6.972;2023-07-09T03:52:48;7.88;;;4.43;;
54193;SDS011;40102;50.906;6.972;2023-07-09T03:55:13;5.80;;;4.20;;
54193;SDS011;40102;50.906;6.972;2023-07-09T03:57:39;7.00;;;3.72;;
54193;SDS011;40102;50.906;6.972;2023-07-09T04:00:05;7.05;;;3.88;;
54193;SDS011;40102;50.906;6.972;2023-07-09T04:05:00;7.30;;;4.22;;
54193;SDS011;40102;50.906;6.972;2023-07-09T04:07:25;8.43;;;4.40;;
54193;SDS011;40102;50.906;6.972;2023-07-09T04:09:52;11.00;;;4.80;;
54193;SDS011;40102;50.906;6.972;2023-07-09T04:12:17;8.38;;;4.40;;
54193;SDS011;40102;50.906;6.972;2023-07-09T04:14:43;8.18;;;4.10;;
54193;SDS011;40102;50.906;6.972;2023-07-09T04:17:08;7.10;;;4.10;;
54193;SDS011;40102;50.906;6.972;2023-07-09T04:19:33;5.63;;;3.75;;
54193;SDS011;40102;50.906;6.972;2023-07-09T04:21:59;8.60;;;3.78;;
54193;SDS011;40102;50.906;6.972;2023-07-09T04:24:25;7.80;;;3.95;;
54193;SDS011;40102;50.906;6.972;2023-07-09T04:29:22;8.43;;;3.83;;
54193;SDS011;40102;50.906;6.972;2023-07-09T04:31:47;6.43;;;4.07;;
54193;SDS011;40102;50.906;6.972;2023-07-09T04:34:13;7.05;;;4.45;;
54193;SDS011;40102;50.906;6.972;2023-07-09T04:36:38;6.28;;;4.00;;
54193;SDS011;40102;50.906;6.972;2023-07-09T04:39:04;8.70;;;4.15;;
54193;SDS011;40102;50.906;6.972;2023-07-09T04:41:29;7.35;;;4.07;;
54193;SDS011;40102;50.906;6.972;2023-07-09T04:43:55;8.98;;;4.10;;
54193;SDS011;40102;50.906;6.972;2023-07-09T04:46:20;10.25;;;4.18;;
54193;SDS011;40102;50.906;6.972;2023-07-09T04:48:45;6.35;;;3.97;;
54193;SDS011;40102;50.906;6.972;2023-07-09T04:51:10;7.15;;;4.10;;
54193;SDS011;40102;50.906;6.972;2023-07-09T04:53:36;6.57;;;4.20;;
54193;SDS011;40102;50.906;6.972;2023-07-09T04:56:01;7.63;;;3.78;;
54193;SDS011;40102;50.906;6.972;2023-07-09T04:58:27;9.70;;;4.40;;
54193;SDS011;40102;50.906;6.972;2023-07-09T05:00:56;6.93;;;3.92;;
54193;SDS011;40102;50.906;6.972;2023-07-09T05:03:22;6.53;;;3.90;;
54193;SDS011;40102;50.906;6.972;2023-07-09T05:05:47;7.40;;;4.13;;
54193;SDS011;40102;50.906;6.972;2023-07-09T05:08:13;9.55;;;3.97;;
54193;SDS011;40102;50.906;6.972;2023-07-09T05:10:46;7.95;;;4.03;;
54193;SDS011;40102;50.906;6.972;2023-07-09T05:13:14;6.88;;;3.45;;
54193;SDS011;40102;50.906;6.972;2023-07-09T05:15:40;8.00;;;3.90;;
54193;SDS011;40102;50.906;6.972;2023-07-09T05:18:06;6.20;;;4.05;;
54193;SDS011;40102;50.906;6.972;2023-07-09T05:20:33;7.40;;;4.10;;
54193;SDS011;40102;50.906;6.972;2023-07-09T05:22:58;8.15;;;3.92;;
54193;SDS011;40102;50.906;6.972;2023-07-09T05:25:24;7.30;;;4.15;;
54193;SDS011;40102;50.906;6.972;2023-07-09T05:27:49;5.90;;;3.75;;
54193;SDS011;40102;50.906;6.972;2023-07-09T05:30:14;6.25;;;3.80;;
54193;SDS011;40102;50.906;6.972;2023-07-09T05:32:40;6.00;;;3.88;;
54193;SDS011;40102;50.906;6.972;2023-07-09T05:35:05;7.18;;;3.47;;
54193;SDS011;40102;50.906;6.972;2023-07-09T05:37:31;6.03;;;3.70;;
54193;SDS011;40102;50.906;6.972;2023-07-09T05:39:58;6.88;;;3.78;;
54193;SDS011;40102;50.906;6.972;2023-07-09T05:42:23;5.93;;;3.80;;
54193;SDS011;40102;50.906;6.972;2023-07-09T05:44:49;7.57;;;4.18;;
54193;SDS011;40102;50.906;6.972;2023-07-09T05:47:14;6.93;;;3.60;;
54193;SDS011;40102;50.906;6.972;2023-07-09T05:49:40;7.57;;;4.20;;
54193;SDS011;40102;50.906;6.972;2023-07-09T05:52:06;7.40;;;3.78;;
54193;SDS011;40102;50.906;6.972;2023-07-09T05:54:31;7.82;;;4.38;;
54193;SDS011;40102;50.906;6.972;2023-07-09T05:56:57;5.75;;;3.92;;
54193;SDS011;40102;50.906;6.972;2023-07-09T05:59:22;6.10;;;3.40;;
54193;SDS011;40102;50.906;6.972;2023-07-09T06:01:47;6.05;;;3.60;;
54193;SDS011;40102;50.906;6.972;2023-07-09T06:04:13;5.68;;;3.33;;
54193;SDS011;40102;50.906;6.972;2023-07-09T06:06:39;7.80;;;3.90;;
54193;SDS011;40102;50.906;6.972;2023-07-09T06:09:06;9.07;;;3.60;;
54193;SDS011;40102;50.906;6.972;2023-07-09T06:11:33;7.13;;;3.75;;
54193;SDS011;40102;50.906;6.972;2023-07-09T06:13:58;9.60;;;3.95;;
54193;SDS011;40102;50.906;6.972;2023-07-09T06:16:24;6.30;;;3.70;;
54193;SDS011;40102;50.906;6.972;2023-07-09T06:18:49;6.65;;;3.70;;
54193;SDS011;40102;50.906;6.972;2023-07-09T06:21:15;5.22;;;3.33;;
54193;SDS011;40102;50.906;6.972;2023-07-09T06:23:40;8.52;;;3.50;;
54193;SDS011;40102;50.906;6.972;2023-07-09T06:26:06;5.68;;;3.35;;
54193;SDS011;40102;50.906;6.972;2023-07-09T06:28:31;5.72;;;3.78;;
54193;SDS011;40102;50.906;6.972;2023-07-09T06:30:57;6.63;;;3.70;;
54193;SDS011;40102;50.906;6.972;2023-07-09T06:33:24;6.50;;;3.70;;
54193;SDS011;40102;50.906;6.972;2023-07-09T06:35:51;6.80;;;3.58;;
54193;SDS011;40102;50.906;6.972;2023-07-09T06:38:23;5.97;;;3.42;;
54193;SDS011;40102;50.906;6.972;2023-07-09T06:40:49;8.02;;;3.70;;
54193;SDS011;40102;50.906;6.972;2023-07-09T06:43:15;9.68;;;4.13;;
54193;SDS011;40102;50.906;6.972;2023-07-09T06:48:23;6.20;;;3.90;;
54193;SDS011;40102;50.906;6.972;2023-07-09T06:50:49;6.35;;;3.53;;
54193;SDS011;40102;50.906;6.972;2023-07-09T06:53:15;6.50;;;3.83;;
54193;SDS011;40102;50.906;6.972;2023-07-09T06:55:41;6.50;;;3.67;;
54193;SDS011;40102;50.906;6.972;2023-07-09T06:58:06;5.88;;;4.10;;
54193;SDS011;40102;50.906;6.972;2023-07-09T07:00:33;6.63;;;3.50;;
54193;SDS011;40102;50.906;6.972;2023-07-09T07:03:02;5.82;;;3.42;;
54193;SDS011;40102;50.906;6.972;2023-07-09T07:05:28;6.78;;;3.50;;
54193;SDS011;40102;50.906;6.972;2023-07-09T07:07:54;5.85;;;3.83;;
54193;SDS011;40102;50.906;6.972;2023-07-09T07:10:19;7.78;;;3.92;;
54193;SDS011;40102;50.906;6.972;2023-07-09T07:12:46;7.45;;;3.80;;
54193;SDS011;40102;50.906;6.972;2023-07-09T07:15:14;5.80;;;3.63;;
54193;SDS011;40102;50.906;6.972;2023-07-09T07:17:41;3.70;;;3.05;;
54193;SDS011;40102;50.906;6.972;2023-07-09T07:20:08;8.23;;;3.97;;
54193;SDS011;40102;50.906;6.972;2023-07-09T07:22:36;5.80;;;3.60;;
54193;SDS011;40102;50.906;6.972;2023-07-09T07:25:02;4.90;;;3.53;;
54193;SDS011;40102;50.906;6.972;2023-07-09T07:27:28;6.57;;;3.53;;
54193;SDS011;40102;50.906;6.972;2023-07-09T07:29:53;6.70;;;3.72;;
54193;SDS011;40102;50.906;6.972;2023-07-09T07:32:19;5.43;;;4.10;;
54193;SDS011;40102;50.906;6.972;2023-07-09T07:34:45;13.25;;;3.65;;
54193;SDS011;40102;50.906;6.972;2023-07-09T07:37:11;5.72;;;3.30;;
54193;SDS011;40102;50.906;6.972;2023-07-09T07:39:37;8.27;;;3.83;;
54193;SDS011;40102;50.906;6.972;2023-07-09T07:42:02;6.15;;;3.67;;
54193;SDS011;40102;50.906;6.972;2023-07-09T07:44:28;7.05;;;3.72;;
54193;SDS011;40102;50.906;6.972;2023-07-09T07:46:53;9.60;;;4.00;;
54193;SDS011;40102;50.906;6.972;2023-07-09T07:49:18;4.60;;;3.50;;
54193;SDS011;40102;50.906;6.972;2023-07-09T07:51:43;7.00;;;3.75;;
54193;SDS011;40102;50.906;6.972;2023-07-09T07:54:09;7.68;;;3.60;;
54193;SDS011;40102;50.906;6.972;2023-07-09T07:56:35;5.30;;;3.60;;
54193;SDS011;40102;50.906;6.972;2023-07-09T07:59:01;7.78;;;3.72;;
54193;SDS011;40102;50.906;6.972;2023-07-09T08:01:27;4.85;;;3.67;;
54193;SDS011;40102;50.906;6.972;2023-07-09T08:03:52;7.38;;;4.13;;
54193;SDS011;40102;50.906;6.972;2023-07-09T08:06:18;6.72;;;4.22;;
54193;SDS011;40102;50.906;6.972;2023-07-09T08:08:43;6.18;;;3.60;;
54193;SDS011;40102;50.906;6.972;2023-07-09T08:11:09;5.90;;;3.95;;
54193;SDS011;40102;50.906;6.972;2023-07-09T08:13:34;4.53;;;3.42;;
54193;SDS011;40102;50.906;6.972;2023-07-09T08:16:01;6.30;;;3.60;;
54193;SDS011;40102;50.906;6.972;2023-07-09T08:18:26;7.40;;;3.80;;
54193;SDS011;40102;50.906;6.972;2023-07-09T08:20:51;5.40;;;3.33;;
54193;SDS011;40102;50.906;6.972;2023-07-09T08:23:17;7.03;;;3.80;;
54193;SDS011;40102;50.906;6.972;2023-07-09T08:25:42;5.60;;;3.78;;
54193;SDS011;40102;50.906;6.972;2023-07-09T08:28:07;10.30;;;3.85;;
54193;SDS011;40102;50.906;6.972;2023-07-09T08:30:33;7.53;;;3.50;;
54193;SDS011;40102;50.906;6.972;2023-07-09T08:32:58;4.75;;;3.10;;
54193;SDS011;40102;50.906;6.972;2023-07-09T08:35:24;5.22;;;3.45;;
54193;SDS011;40102;50.906;6.972;2023-07-09T08:37:49;5.20;;;3.65;;
54193;SDS011;40102;50.906;6.972;2023-07-09T08:40:15;5.63;;;3.58;;
54193;SDS011;40102;50.906;6.972;2023-07-09T08:42:45;5.70;;;3.17;;
54193;SDS011;40102;50.906;6.972;2023-07-09T08:48:06;6.07;;;3.65;;
54193;SDS011;40102;50.906;6.972;2023-07-09T08:50:41;4.78;;;3.40;;
54193;SDS011;40102;50.906;6.972;2023-07-09T08:53:20;5.38;;;3.42;;
54193;SDS011;40102;50.906;6.972;2023-07-09T08:55:58;6.38;;;3.80;;
54193;SDS011;40102;50.906;6.972;2023-07-09T08:58:25;6.07;;;3.40;;
54193;SDS011;40102;50.906;6.972;2023-07-09T09:00:54;7.55;;;3.65;;
54193;SDS011;40102;50.906;6.972;2023-07-09T09:05:54;6.75;;;3.60;;
54193;SDS011;40102;50.906;6.972;2023-07-09T09:08:39;5.88;;;3.78;;
54193;SDS011;40102;50.906;6.972;2023-07-09T09:14:20;7.85;;;3.63;;
54193;SDS011;40102;50.906;6.972;2023-07-09T09:16:52;6.68;;;3.40;;
54193;SDS011;40102;50.906;6.972;2023-07-09T09:19:25;6.57;;;3.42;;
54193;SDS011;40102;50.906;6.972;2023-07-09T09:21:56;6.45;;;3.50;;
54193;SDS011;40102;50.906;6.972;2023-07-09T09:24:39;6.60;;;3.85;;
54193;SDS011;40102;50.906;6.972;2023-07-09T09:27:20;8.98;;;4.18;;
54193;SDS011;40102;50.906;6.972;2023-07-09T09:29:45;5.32;;;3.55;;
54193;SDS011;40102;50.906;6.972;2023-07-09T09:32:19;8.32;;;3.90;;
54193;SDS011;40102;50.906;6.972;2023-07-09T09:34:46;9.20;;;3.90;;
54193;SDS011;40102;50.906;6.972;2023-07-09T09:37:11;6.22;;;3.70;;
54193;SDS011;40102;50.906;6.972;2023-07-09T09:39:37;8.23;;;3.88;;
54193;SDS011;40102;50.906;6.972;2023-07-09T09:42:07;6.10;;;3.45;;
54193;SDS011;40102;50.906;6.972;2023-07-09T09:44:42;6.68;;;4.07;;
54193;SDS011;40102;50.906;6.972;2023-07-09T09:47:10;7.85;;;3.65;;
54193;SDS011;40102;50.906;6.972;2023-07-09T09:49:41;7.63;;;3.72;;
54193;SDS011;40102;50.906;6.972;2023-07-09T09:52:14;5.75;;;3.58;;
54193;SDS011;40102;50.906;6.972;2023-07-09T09:54:46;6.13;;;3.70;;
54193;SDS011;40102;50.906;6.972;2023-07-09T09:57:19;8.60;;;3.80;;
54193;SDS011;40102;50.906;6.972;2023-07-09T09:59:46;6.88;;;3.80;;
54193;SDS011;40102;50.906;6.972;2023-07-09T10:02:19;5.90;;;3.30;;
54193;SDS011;40102;50.906;6.972;2023-07-09T10:04:46;6.82;;;3.65;;
54193;SDS011;40102;50.906;6.972;2023-07-09T10:07:19;6.82;;;3.50;;
54193;SDS011;40102;50.906;6.972;2023-07-09T10:10:08;5.13;;;3.67;;
54193;SDS011;40102;50.906;6.972;2023-07-09T10:17:45;5.85;;;4.03;;
54193;SDS011;40102;50.906;6.972;2023-07-09T10:30:57;6.50;;;3.72;;
54193;SDS011;40102;50.906;6.972;2023-07-09T10:33:44;4.65;;;3.28;;
54193;SDS011;40102;50.906;6.972;2023-07-09T10:36:25;5.75;;;3.28;;
54193;SDS011;40102;50.906;6.972;2023-07-09T10:39:18;5.75;;;3.50;;
54193;SDS011;40102;50.906;6.972;2023-07-09T10:41:49;6.60;;;3.55;;
54193;SDS011;40102;50.906;6.972;2023-07-09T10:44:22;4.93;;;3.78;;
54193;SDS011;40102;50.906;6.972;2023-07-09T10:46:55;5.57;;;3.50;;
54193;SDS011;40102;50.906;6.972;2023-07-09T10:49:34;4.82;;;3.20;;
54193;SDS011;40102;50.906;6.972;2023-07-09T10:52:07;3.92;;;3.20;;
54193;SDS011;40102;50.906;6.972;2023-07-09T10:57:28;5.70;;;3.50;;
54193;SDS011;40102;50.906;6.972;2023-07-09T11:00:00;6.70;;;3.50;;
54193;SDS011;40102;50.906;6.972;2023-07-09T11:02:31;5.97;;;3.30;;
54193;SDS011;40102;50.906;6.972;2023-07-09T11:05:03;5.78;;;3.28;;
54193;SDS011;40102;50.906;6.972;2023-07-09T11:07:31;7.85;;;3.42;;
54193;SDS011;40102;50.906;6.972;2023-07-09T11:10:04;5.38;;;3.15;;
54193;SDS011;40102;50.906;6.972;2023-07-09T11:12:41;5.18;;;3.40;;
54193;SDS011;40102;50.906;6.972;2023-07-09T11:15:12;6.00;;;3.20;;
54193;SDS011;40102;50.906;6.972;2023-07-09T11:17:44;9.32;;;3.40;;
54193;SDS011;40102;50.906;6.972;2023-07-09T11:23:18;7.20;;;3.50;;
54193;SDS011;40102;50.906;6.972;2023-07-09T11:25:46;9.30;;;3.60;;
54193;SDS011;40102;50.906;6.972;2023-07-09T11:28:13;3.85;;;2.90;;
54193;SDS011;40102;50.906;6.972;2023-07-09T11:30:48;5.32;;;3.15;;
54193;SDS011;40102;50.906;6.972;2023-07-09T11:33:18;4.57;;;2.90;;
54193;SDS011;40102;50.906;6.972;2023-07-09T11:35:46;6.20;;;2.97;;
54193;SDS011;40102;50.906;6.972;2023-07-09T11:38:20;4.63;;;3.10;;
54193;SDS011;40102;50.906;6.972;2023-07-09T11:40:54;8.70;;;3.17;;
54193;SDS011;40102;50.906;6.972;2023-07-09T11:43:28;6.63;;;3.65;;
54193;SDS011;40102;50.906;6.972;2023-07-09T11:45:54;4.50;;;2.55;;
54193;SDS011;40102;50.906;6.972;2023-07-09T11:50:51;5.35;;;2.97;;
54193;SDS011;40102;50.906;6.972;2023-07-09T11:56:01;4.70;;;2.83;;
54193;SDS011;40102;50.906;6.972;2023-07-09T11:58:27;6.43;;;3.05;;
54193;SDS011;40102;50.906;6.972;2023-07-09T12:00:56;8.30;;;3.03;;
54193;SDS011;40102;50.906;6.972;2023-07-09T12:03:27;4.70;;;2.67;;
54193;SDS011;40102;50.906;6.972;2023-07-09T12:06:16;5.10;;;2.92;;
54193;SDS011;40102;50.906;6.972;2023-07-09T12:08:45;4.50;;;2.88;;
54193;SDS011;40102;50.906;6.972;2023-07-09T12:11:31;6.97;;;2.75;;
54193;SDS011;40102;50.906;6.972;2023-07-09T12:14:05;5.80;;;2.63;;
54193;SDS011;40102;50.906;6.972;2023-07-09T12:16:36;4.55;;;2.63;;
54193;SDS011;40102;50.906;6.972;2023-07-09T12:19:06;5.13;;;2.72;;
54193;SDS011;40102;50.906;6.972;2023-07-09T12:21:34;5.93;;;2.63;;
54193;SDS011;40102;50.906;6.972;2023-07-09T12:24:03;5.20;;;2.63;;
54193;SDS011;40102;50.906;6.972;2023-07-09T12:26:42;5.85;;;2.65;;
54193;SDS011;40102;50.906;6.972;2023-07-09T12:29:08;10.05;;;2.70;;
54193;SDS011;40102;50.906;6.972;2023-07-09T12:31:36;4.65;;;2.78;;
54193;SDS011;40102;50.906;6.972;2023-07-09T12:34:02;4.93;;;2.60;;
54193;SDS011;40102;50.906;6.972;2023-07-09T12:36:27;6.47;;;2.75;;
54193;SDS011;40102;50.906;6.972;2023-07-09T12:38:55;9.13;;;2.80;;
54193;SDS011;40102;50.906;6.972;2023-07-09T12:41:26;4.25;;;2.65;;
54193;SDS011;40102;50.906;6.972;2023-07-09T12:43:54;6.10;;;2.80;;
54193;SDS011;40102;50.906;6.972;2023-07-09T12:46:24;7.65;;;2.47;;
54193;SDS011;40102;50.906;6.972;2023-07-09T12:48:50;7.38;;;2.97;;
54193;SDS011;40102;50.906;6.972;2023-07-09T12:51:22;4.13;;;2.58;;
54193;SDS011;40102;50.906;6.972;2023-07-09T12:54:11;3.83;;;2.50;;
54193;SDS011;40102;50.906;6.972;2023-07-09T12:56:39;3.65;;;2.58;;
54193;SDS011;40102;50.906;6.972;2023-07-09T12:59:12;5.32;;;2.60;;
54193;SDS011;40102;50.906;6.972;2023-07-09T13:02:18;3.17;;;2.70;;
54193;SDS011;40102;50.906;6.972;2023-07-09T13:05:04;6.40;;;2.70;;
54193;SDS011;40102;50.906;6.972;2023-07-09T13:07:41;6.28;;;2.85;;
54193;SDS011;40102;50.906;6.972;2023-07-09T13:12:40;4.95;;;2.90;;
54193;SDS011;40102;50.906;6.972;2023-07-09T13:15:18;6.75;;;3.00;;
54193;SDS011;40102;50.906;6.972;2023-07-09T13:17:45;5.38;;;3.28;;
54193;SDS011;40102;50.906;6.972;2023-07-09T13:20:10;6.63;;;2.92;;
54193;SDS011;40102;50.906;6.972;2023-07-09T13:22:35;4.47;;;2.97;;
54193;SDS011;40102;50.906;6.972;2023-07-09T13:25:00;7.38;;;3.10;;
54193;SDS011;40102;50.906;6.972;2023-07-09T13:27:26;5.03;;;3.00;;
54193;SDS011;40102;50.906;6.972;2023-07-09T13:29:51;6.78;;;3.10;;
54193;SDS011;40102;50.906;6.972;2023-07-09T13:32:16;6.10;;;2.83;;
54193;SDS011;40102;50.906;6.972;2023-07-09T13:34:42;5.10;;;2.70;;
54193;SDS011;40102;50.906;6.972;2023-07-09T13:37:12;5.75;;;2.70;;
54193;SDS011;40102;50.906;6.972;2023-07-09T13:39:39;9.43;;;2.95;;
54193;SDS011;40102;50.906;6.972;2023-07-09T13:42:05;3.70;;;2.97;;
54193;SDS011;40102;50.906;6.972;2023-07-09T13:44:39;4.68;;;3.00;;
54193;SDS011;40102;50.906;6.972;2023-07-09T13:47:08;4.78;;;3.13;;
54193;SDS011;40102;50.906;6.972;2023-07-09T13:49:36;3.58;;;2.90;;
54193;SDS011;40102;50.906;6.972;2023-07-09T13:52:01;4.25;;;2.83;;
54193;SDS011;40102;50.906;6.972;2023-07-09T13:54:28;4.57;;;2.67;;
54193;SDS011;40102;50.906;6.972;2023-07-09T13:57:03;5.47;;;2.97;;
54193;SDS011;40102;50.906;6.972;2023-07-09T13:59:30;4.10;;;2.55;;
54193;SDS011;40102;50.906;6.972;2023-07-09T14:01:56;4.45;;;2.53;;
54193;SDS011;40102;50.906;6.972;2023-07-09T14:04:24;4.82;;;2.70;;
54193;SDS011;40102;50.906;6.972;2023-07-09T14:06:51;7.30;;;2.95;;
54193;SDS011;40102;50.906;6.972;2023-07-09T14:09:17;6.72;;;2.92;;
54193;SDS011;40102;50.906;6.972;2023-07-09T14:11:47;8.00;;;2.95;;
54193;SDS011;40102;50.906;6.972;2023-07-09T14:14:18;5.68;;;3.00;;
54193;SDS011;40102;50.906;6.972;2023-07-09T14:16:46;6.90;;;2.70;;
54193;SDS011;40102;50.906;6.972;2023-07-09T14:19:17;7.53;;;3.00;;
54193;SDS011;40102;50.906;6.972;2023-07-09T14:21:44;9.18;;;3.10;;
54193;SDS011;40102;50.906;6.972;2023-07-09T14:24:21;7.13;;;2.85;;
54193;SDS011;40102;50.906;6.972;2023-07-09T14:26:51;5.28;;;2.63;;
54193;SDS011;40102;50.906;6.972;2023-07-09T14:29:18;3.47;;;2.65;;
54193;SDS011;40102;50.906;6.972;2023-07-09T14:31:44;6.18;;;2.47;;
54193;SDS011;40102;50.906;6.972;2023-07-09T14:36:38;11.68;;;2.80;;
54193;SDS011;40102;50.906;6.972;2023-07-09T14:39:07;3.97;;;2.30;;
54193;SDS011;40102;50.906;6.972;2023-07-09T14:41:35;10.63;;;3.33;;
54193;SDS011;40102;50.906;6.972;2023-07-09T14:44:00;7.90;;;2.70;;
54193;SDS011;40102;50.906;6.972;2023-07-09T14:46:26;11.05;;;3.40;;
54193;SDS011;40102;50.906;6.972;2023-07-09T14:48:51;10.48;;;3.13;;
54193;SDS011;40102;50.906;6.972;2023-07-09T14:51:16;9.95;;;3.13;;
54193;SDS011;40102;50.906;6.972;2023-07-09T14:53:43;7.18;;;2.90;;
54193;SDS011;40102;50.906;6.972;2023-07-09T14:56:09;7.45;;;3.05;;
54193;SDS011;40102;50.906;6.972;2023-07-09T14:58:37;4.63;;;2.92;;
54193;SDS011;40102;50.906;6.972;2023-07-09T15:01:03;5.55;;;3.15;;
54193;SDS011;40102;50.906;6.972;2023-07-09T15:03:29;7.53;;;3.08;;
54193;SDS011;40102;50.906;6.972;2023-07-09T15:05:55;9.27;;;3.28;;
54193;SDS011;40102;50.906;6.972;2023-07-09T15:08:21;6.63;;;3.10;;
54193;SDS011;40102;50.906;6.972;2023-07-09T15:10:47;10.15;;;3.25;;
54193;SDS011;40102;50.906;6.972;2023-07-09T15:15:55;4.20;;;3.22;;
54193;SDS011;40102;50.906;6.972;2023-07-09T15:18:20;5.53;;;3.30;;
54193;SDS011;40102;50.906;6.972;2023-07-09T15:20:49;6.40;;;3.00;;
54193;SDS011;40102;50.906;6.972;2023-07-09T15:23:17;5.25;;;3.17;;
54193;SDS011;40102;50.906;6.972;2023-07-09T15:25:44;5.68;;;2.80;;
54193;SDS011;40102;50.906;6.972;2023-07-09T15:28:10;4.80;;;3.03;;
54193;SDS011;40102;50.906;6.972;2023-07-09T15:30:36;6.28;;;2.95;;
54193;SDS011;40102;50.906;6.972;2023-07-09T15:33:02;5.18;;;3.20;;
54193;SDS011;40102;50.906;6.972;2023-07-09T15:35:28;6.63;;;3.10;;
54193;SDS011;40102;50.906;6.972;2023-07-09T15:37:58;4.40;;;2.88;;
54193;SDS011;40102;50.906;6.972;2023-07-09T15:40:25;5.50;;;3.95;;
54193;SDS011;40102;50.906;6.972;2023-07-09T15:42:56;7.28;;;3.88;;
54193;SDS011;40102;50.906;6.972;2023-07-09T15:45:23;5.10;;;3.55;;
54193;SDS011;40102;50.906;6.972;2023-07-09T15:47:49;4.88;;;3.80;;